DAL2020 KJAC-KSLC
Flight info
| Callsign | DAL2020 |
|---|---|
| Flight time | 0h 38m |
| Altitude | 26000 |
| Route | ALPIN5 KICNE LHO CARTR1 |
| Aircraft | A319/M-SDE3FGHIRWY/LB1 |
Departure
| Time | 2026-05-06 18:43 |
|---|---|
| Airport | Jackson Hole Airport (KJAC) |
Arrival
| Time | 2026-05-06 19:21 |
|---|---|
| Airport | Salt Lake City International Airport (KSLC) |
| Time | Latitude | Longitude | Altitude | Speed | Heading |
|---|---|---|---|---|---|
| 2026-05-06 18:28 | 43.60389 | -110.73692 | 6434 ft | 0 kts | 109° |
| 2026-05-06 18:37 | 43.60390 | -110.73695 | 6434 ft | 3 kts | 109° |
| 2026-05-06 18:37 | 43.60393 | -110.73710 | 6434 ft | 3 kts | 103° |
| 2026-05-06 18:37 | 43.60399 | -110.73744 | 6432 ft | 2 kts | 102° |
| 2026-05-06 18:37 | 43.60397 | -110.73768 | 6434 ft | 3 kts | 63° |
| 2026-05-06 18:38 | 43.60387 | -110.73782 | 6434 ft | 0 kts | 19° |
| 2026-05-06 18:40 | 43.60467 | -110.73743 | 6432 ft | 13 kts | 19° |
| 2026-05-06 18:40 | 43.60557 | -110.73700 | 6433 ft | 14 kts | 19° |
| 2026-05-06 18:40 | 43.60654 | -110.73653 | 6434 ft | 15 kts | 19° |
| 2026-05-06 18:40 | 43.60766 | -110.73599 | 6432 ft | 19 kts | 19° |
| 2026-05-06 18:41 | 43.60896 | -110.73536 | 6433 ft | 20 kts | 19° |
| 2026-05-06 18:41 | 43.61028 | -110.73472 | 6435 ft | 20 kts | 19° |
| 2026-05-06 18:41 | 43.61158 | -110.73408 | 6432 ft | 20 kts | 19° |
| 2026-05-06 18:41 | 43.61287 | -110.73345 | 6432 ft | 20 kts | 19° |
| 2026-05-06 18:42 | 43.61414 | -110.73283 | 6432 ft | 19 kts | 19° |
| 2026-05-06 18:42 | 43.61519 | -110.73305 | 6438 ft | 15 kts | 304° |
| 2026-05-06 18:42 | 43.61514 | -110.73393 | 6440 ft | 10 kts | 204° |
| 2026-05-06 18:42 | 43.61419 | -110.73436 | 6440 ft | 34 kts | 198° |
| 2026-05-06 18:43 | 43.60921 | -110.73679 | 6437 ft | 116 kts | 200° |
| 2026-05-06 18:43 | 43.59972 | -110.74141 | 6611 ft | 159 kts | 198° |
| 2026-05-06 18:43 | 43.58918 | -110.74642 | 7310 ft | 162 kts | 201° |
| 2026-05-06 18:43 | 43.57879 | -110.75257 | 8052 ft | 163 kts | 205° |
| 2026-05-06 18:44 | 43.56806 | -110.75962 | 8453 ft | 181 kts | 205° |
| 2026-05-06 18:44 | 43.55613 | -110.76758 | 8757 ft | 200 kts | 206° |
| 2026-05-06 18:44 | 43.54292 | -110.77648 | 9021 ft | 223 kts | 207° |
| 2026-05-06 18:44 | 43.52843 | -110.78646 | 9225 ft | 251 kts | 207° |
| 2026-05-06 18:45 | 43.51195 | -110.79751 | 9599 ft | 276 kts | 206° |
| 2026-05-06 18:45 | 43.49405 | -110.80924 | 10201 ft | 294 kts | 206° |
| 2026-05-06 18:45 | 43.47481 | -110.82176 | 10590 ft | 318 kts | 206° |
| 2026-05-06 18:45 | 43.46124 | -110.83061 | 10850 ft | 332 kts | 206° |
| 2026-05-06 18:46 | 43.43270 | -110.84917 | 11807 ft | 344 kts | 207° |
| 2026-05-06 18:46 | 43.41089 | -110.86333 | 12651 ft | 348 kts | 207° |
| 2026-05-06 18:46 | 43.38881 | -110.87767 | 13410 ft | 355 kts | 207° |
| 2026-05-06 18:46 | 43.36621 | -110.89233 | 14100 ft | 362 kts | 207° |
| 2026-05-06 18:47 | 43.34317 | -110.90728 | 14740 ft | 371 kts | 207° |
| 2026-05-06 18:47 | 43.31994 | -110.92237 | 14976 ft | 377 kts | 208° |
| 2026-05-06 18:47 | 43.29618 | -110.93780 | 15032 ft | 379 kts | 208° |
| 2026-05-06 18:47 | 43.27231 | -110.95332 | 15032 ft | 380 kts | 208° |
| 2026-05-06 18:48 | 43.24838 | -110.96882 | 15048 ft | 381 kts | 207° |
| 2026-05-06 18:48 | 43.22440 | -110.98433 | 15035 ft | 381 kts | 207° |
| 2026-05-06 18:48 | 43.20046 | -111.00038 | 15359 ft | 385 kts | 210° |
| 2026-05-06 18:48 | 43.17667 | -111.01751 | 16131 ft | 387 kts | 211° |
| 2026-05-06 18:49 | 43.15287 | -111.03527 | 16762 ft | 393 kts | 212° |
| 2026-05-06 18:49 | 43.12872 | -111.05350 | 17346 ft | 400 kts | 212° |
| 2026-05-06 18:49 | 43.10409 | -111.07199 | 17917 ft | 407 kts | 212° |
| 2026-05-06 18:49 | 43.07932 | -111.09040 | 18489 ft | 414 kts | 212° |
| 2026-05-06 18:50 | 43.05375 | -111.10925 | 19027 ft | 421 kts | 211° |
| 2026-05-06 18:50 | 43.02783 | -111.12817 | 19631 ft | 425 kts | 211° |
| 2026-05-06 18:50 | 43.00158 | -111.14723 | 20245 ft | 430 kts | 211° |
| 2026-05-06 18:50 | 42.97507 | -111.16652 | 20820 ft | 433 kts | 211° |
| 2026-05-06 18:51 | 42.94832 | -111.18597 | 21374 ft | 439 kts | 211° |
| 2026-05-06 18:51 | 42.92124 | -111.20565 | 21905 ft | 444 kts | 211° |
| 2026-05-06 18:51 | 42.89386 | -111.22555 | 22440 ft | 448 kts | 211° |
| 2026-05-06 18:51 | 42.86624 | -111.24563 | 22934 ft | 452 kts | 212° |
| 2026-05-06 18:52 | 42.83876 | -111.26562 | 23413 ft | 456 kts | 212° |
| 2026-05-06 18:52 | 42.81068 | -111.28602 | 23875 ft | 460 kts | 212° |
| 2026-05-06 18:52 | 42.78229 | -111.30659 | 24350 ft | 464 kts | 212° |
| 2026-05-06 18:52 | 42.75364 | -111.32732 | 24802 ft | 468 kts | 212° |
| 2026-05-06 18:53 | 42.72481 | -111.34816 | 25241 ft | 471 kts | 212° |
| 2026-05-06 18:53 | 42.69574 | -111.36908 | 25658 ft | 474 kts | 212° |
| 2026-05-06 18:53 | 42.66646 | -111.39013 | 26053 ft | 478 kts | 212° |
| 2026-05-06 18:53 | 42.63704 | -111.41128 | 26178 ft | 479 kts | 211° |
| 2026-05-06 18:54 | 42.60761 | -111.43241 | 26203 ft | 477 kts | 211° |
| 2026-05-06 18:54 | 42.57826 | -111.45343 | 26198 ft | 477 kts | 211° |
| 2026-05-06 18:54 | 42.54932 | -111.47418 | 26203 ft | 477 kts | 211° |
| 2026-05-06 18:54 | 42.51999 | -111.49521 | 26203 ft | 477 kts | 212° |
| 2026-05-06 18:55 | 42.49070 | -111.51625 | 26205 ft | 477 kts | 212° |
| 2026-05-06 18:55 | 42.46138 | -111.53731 | 26210 ft | 477 kts | 212° |
| 2026-05-06 18:55 | 42.43210 | -111.55831 | 26212 ft | 476 kts | 211° |
| 2026-05-06 18:55 | 42.40278 | -111.57929 | 26210 ft | 476 kts | 211° |
| 2026-05-06 18:56 | 42.37350 | -111.60021 | 26211 ft | 476 kts | 211° |
| 2026-05-06 18:56 | 42.35410 | -111.61405 | 26211 ft | 476 kts | 211° |
| 2026-05-06 18:56 | 42.32479 | -111.63491 | 26210 ft | 476 kts | 211° |
| 2026-05-06 18:56 | 42.28600 | -111.66244 | 26213 ft | 476 kts | 211° |
| 2026-05-06 18:57 | 42.25668 | -111.68323 | 26207 ft | 476 kts | 211° |
| 2026-05-06 18:57 | 42.22737 | -111.70395 | 26206 ft | 476 kts | 211° |
| 2026-05-06 18:57 | 42.20754 | -111.71797 | 26207 ft | 476 kts | 211° |
| 2026-05-06 18:57 | 42.16868 | -111.74546 | 26206 ft | 476 kts | 211° |
| 2026-05-06 18:58 | 42.14927 | -111.75918 | 26204 ft | 476 kts | 211° |
| 2026-05-06 18:58 | 42.12002 | -111.77989 | 26204 ft | 475 kts | 211° |
| 2026-05-06 18:58 | 42.09077 | -111.80060 | 26204 ft | 475 kts | 211° |
| 2026-05-06 18:58 | 42.06151 | -111.82126 | 26205 ft | 475 kts | 211° |
| 2026-05-06 18:59 | 42.03224 | -111.84189 | 26205 ft | 475 kts | 211° |
| 2026-05-06 18:59 | 41.99348 | -111.86918 | 26205 ft | 475 kts | 211° |
| 2026-05-06 18:59 | 41.97368 | -111.88311 | 26109 ft | 475 kts | 211° |
| 2026-05-06 18:59 | 41.93487 | -111.91040 | 25774 ft | 476 kts | 211° |
| 2026-05-06 19:00 | 41.91542 | -111.92406 | 25609 ft | 476 kts | 211° |
| 2026-05-06 19:00 | 41.88615 | -111.94455 | 25352 ft | 474 kts | 211° |
| 2026-05-06 19:00 | 41.85693 | -111.96493 | 25107 ft | 472 kts | 211° |
| 2026-05-06 19:00 | 41.82783 | -111.98521 | 24839 ft | 469 kts | 211° |
| 2026-05-06 19:01 | 41.79799 | -112.00271 | 24193 ft | 469 kts | 201° |
| 2026-05-06 19:01 | 41.76638 | -112.01342 | 23586 ft | 468 kts | 190° |
| 2026-05-06 19:01 | 41.73408 | -112.01874 | 23004 ft | 465 kts | 187° |
| 2026-05-06 19:01 | 41.70212 | -112.02368 | 22467 ft | 461 kts | 187° |
| 2026-05-06 19:02 | 41.67031 | -112.02871 | 21932 ft | 459 kts | 187° |
| 2026-05-06 19:02 | 41.63920 | -112.03368 | 21443 ft | 455 kts | 187° |
| 2026-05-06 19:02 | 41.60788 | -112.03869 | 20926 ft | 450 kts | 187° |
| 2026-05-06 19:02 | 41.57692 | -112.04360 | 20420 ft | 446 kts | 187° |
| 2026-05-06 19:03 | 41.54618 | -112.04856 | 19910 ft | 443 kts | 188° |
| 2026-05-06 19:03 | 41.51577 | -112.05423 | 19399 ft | 440 kts | 189° |
| 2026-05-06 19:03 | 41.48564 | -112.06047 | 18891 ft | 437 kts | 189° |
| 2026-05-06 19:03 | 41.45573 | -112.06695 | 18361 ft | 434 kts | 189° |
| 2026-05-06 19:04 | 41.42588 | -112.07348 | 17633 ft | 437 kts | 189° |
| 2026-05-06 19:04 | 41.39614 | -112.07993 | 17077 ft | 426 kts | 189° |
| 2026-05-06 19:04 | 41.36779 | -112.08593 | 16575 ft | 411 kts | 189° |
| 2026-05-06 19:04 | 41.33994 | -112.09169 | 16064 ft | 398 kts | 189° |
| 2026-05-06 19:05 | 41.31306 | -112.09714 | 15569 ft | 385 kts | 189° |
| 2026-05-06 19:05 | 41.28701 | -112.10242 | 15095 ft | 373 kts | 189° |
| 2026-05-06 19:05 | 41.26150 | -112.10757 | 14644 ft | 370 kts | 189° |
| 2026-05-06 19:05 | 41.23612 | -112.11270 | 14164 ft | 369 kts | 189° |
| 2026-05-06 19:06 | 41.21059 | -112.11791 | 13663 ft | 375 kts | 190° |
| 2026-05-06 19:06 | 41.18474 | -112.12337 | 13145 ft | 377 kts | 190° |
| 2026-05-06 19:06 | 41.15925 | -112.12891 | 12647 ft | 374 kts | 191° |
| 2026-05-06 19:06 | 41.13372 | -112.13452 | 12161 ft | 370 kts | 191° |
| 2026-05-06 19:07 | 41.10841 | -112.14007 | 11639 ft | 367 kts | 191° |
| 2026-05-06 19:07 | 41.08327 | -112.14457 | 11150 ft | 363 kts | 184° |
| 2026-05-06 19:07 | 41.05831 | -112.14325 | 10985 ft | 358 kts | 172° |
| 2026-05-06 19:07 | 41.03379 | -112.13793 | 11010 ft | 356 kts | 171° |
| 2026-05-06 19:08 | 41.00938 | -112.13263 | 11009 ft | 352 kts | 171° |
| 2026-05-06 19:08 | 40.98583 | -112.12756 | 11007 ft | 334 kts | 171° |
| 2026-05-06 19:08 | 40.96345 | -112.12276 | 11007 ft | 318 kts | 171° |
| 2026-05-06 19:08 | 40.94184 | -112.11817 | 11015 ft | 312 kts | 171° |
| 2026-05-06 19:09 | 40.92073 | -112.11371 | 11006 ft | 311 kts | 171° |
| 2026-05-06 19:09 | 40.89937 | -112.10927 | 11002 ft | 311 kts | 172° |
| 2026-05-06 19:09 | 40.87793 | -112.10588 | 11003 ft | 310 kts | 175° |
| 2026-05-06 19:09 | 40.85642 | -112.10328 | 11012 ft | 310 kts | 176° |
| 2026-05-06 19:10 | 40.83485 | -112.10099 | 11006 ft | 312 kts | 176° |
| 2026-05-06 19:10 | 40.81327 | -112.09877 | 11002 ft | 311 kts | 176° |
| 2026-05-06 19:10 | 40.79171 | -112.09649 | 10997 ft | 307 kts | 176° |
| 2026-05-06 19:10 | 40.77099 | -112.09420 | 11004 ft | 291 kts | 176° |
| 2026-05-06 19:11 | 40.75134 | -112.09193 | 11011 ft | 279 kts | 176° |
| 2026-05-06 19:11 | 40.73240 | -112.08972 | 11012 ft | 276 kts | 176° |
| 2026-05-06 19:11 | 40.71325 | -112.08750 | 10869 ft | 277 kts | 176° |
| 2026-05-06 19:11 | 40.69412 | -112.08524 | 10545 ft | 275 kts | 176° |
| 2026-05-06 19:12 | 40.67514 | -112.08298 | 10214 ft | 273 kts | 175° |
| 2026-05-06 19:12 | 40.65623 | -112.08066 | 9862 ft | 273 kts | 175° |
| 2026-05-06 19:12 | 40.63739 | -112.07834 | 9514 ft | 271 kts | 176° |
| 2026-05-06 19:12 | 40.61866 | -112.07607 | 9161 ft | 269 kts | 176° |
| 2026-05-06 19:13 | 40.60023 | -112.07384 | 8997 ft | 263 kts | 175° |
| 2026-05-06 19:13 | 40.58205 | -112.07161 | 9011 ft | 262 kts | 175° |
| 2026-05-06 19:13 | 40.56404 | -112.06939 | 9014 ft | 262 kts | 175° |
| 2026-05-06 19:13 | 40.54614 | -112.06721 | 9009 ft | 262 kts | 176° |
| 2026-05-06 19:14 | 40.52801 | -112.06502 | 9009 ft | 262 kts | 176° |
| 2026-05-06 19:14 | 40.50993 | -112.06212 | 9003 ft | 262 kts | 166° |
| 2026-05-06 19:14 | 40.49365 | -112.05169 | 9016 ft | 262 kts | 141° |
| 2026-05-06 19:14 | 40.48230 | -112.03323 | 9040 ft | 262 kts | 114° |
| 2026-05-06 19:15 | 40.47806 | -112.01026 | 9029 ft | 261 kts | 89° |
| 2026-05-06 19:15 | 40.48157 | -111.98731 | 9009 ft | 256 kts | 63° |
| 2026-05-06 19:15 | 40.49188 | -111.96871 | 9013 ft | 252 kts | 39° |
| 2026-05-06 19:15 | 40.50663 | -111.95721 | 9009 ft | 250 kts | 21° |
| 2026-05-06 19:16 | 40.52290 | -111.94943 | 9010 ft | 249 kts | 12° |
| 2026-05-06 19:16 | 40.54001 | -111.94648 | 8774 ft | 247 kts | 359° |
| 2026-05-06 19:16 | 40.55711 | -111.94770 | 8461 ft | 244 kts | 353° |
| 2026-05-06 19:16 | 40.57392 | -111.94983 | 8156 ft | 240 kts | 353° |
| 2026-05-06 19:17 | 40.59033 | -111.95181 | 7832 ft | 233 kts | 353° |
| 2026-05-06 19:17 | 40.60628 | -111.95365 | 7510 ft | 227 kts | 354° |
| 2026-05-06 19:17 | 40.62176 | -111.95544 | 7220 ft | 220 kts | 353° |
| 2026-05-06 19:17 | 40.63668 | -111.95715 | 6974 ft | 210 kts | 353° |
| 2026-05-06 19:18 | 40.65077 | -111.95878 | 6665 ft | 202 kts | 354° |
| 2026-05-06 19:18 | 40.66437 | -111.96034 | 6402 ft | 190 kts | 353° |
| 2026-05-06 19:18 | 40.67693 | -111.96179 | 6175 ft | 171 kts | 353° |
| 2026-05-06 19:18 | 40.68808 | -111.96309 | 5934 ft | 153 kts | 353° |
| 2026-05-06 19:19 | 40.69836 | -111.96428 | 5660 ft | 146 kts | 352° |
| 2026-05-06 19:19 | 40.70844 | -111.96546 | 5509 ft | 145 kts | 353° |
| 2026-05-06 19:19 | 40.71812 | -111.96664 | 5333 ft | 135 kts | 353° |
| 2026-05-06 19:19 | 40.72741 | -111.96773 | 5118 ft | 133 kts | 353° |
| 2026-05-06 19:20 | 40.73645 | -111.96900 | 4972 ft | 133 kts | 353° |
| 2026-05-06 19:20 | 40.74563 | -111.97001 | 4803 ft | 133 kts | 353° |
| 2026-05-06 19:20 | 40.75483 | -111.97081 | 4674 ft | 132 kts | 356° |
| 2026-05-06 19:20 | 40.76388 | -111.97177 | 4475 ft | 128 kts | 353° |
| 2026-05-06 19:21 | 40.77283 | -111.97286 | 4305 ft | 129 kts | 352° |
| 2026-05-06 19:21 | 40.78155 | -111.97400 | 4229 ft | 116 kts | 354° |
| 2026-05-06 19:21 | 40.78801 | -111.97482 | 4234 ft | 74 kts | 356° |
| 2026-05-06 19:21 | 40.79100 | -111.97546 | 4232 ft | 21 kts | 318° |
| 2026-05-06 19:22 | 40.79215 | -111.97646 | 4229 ft | 19 kts | 302° |
| 2026-05-06 19:22 | 40.79204 | -111.97732 | 4229 ft | 5 kts | 182° |
| 2026-05-06 19:22 | 40.79170 | -111.97728 | 4230 ft | 4 kts | 175° |
| 2026-05-06 19:22 | 40.79137 | -111.97724 | 4231 ft | 7 kts | 175° |
| 2026-05-06 19:23 | 40.79063 | -111.97716 | 4234 ft | 12 kts | 175° |
| 2026-05-06 19:23 | 40.78949 | -111.97703 | 4235 ft | 18 kts | 175° |
| 2026-05-06 19:23 | 40.78833 | -111.97731 | 4233 ft | 18 kts | 243° |
| 2026-05-06 19:23 | 40.78811 | -111.97894 | 4234 ft | 18 kts | 264° |
| 2026-05-06 19:24 | 40.78803 | -111.98060 | 4232 ft | 19 kts | 265° |
| 2026-05-06 19:24 | 40.78790 | -111.98231 | 4230 ft | 15 kts | 263° |
| 2026-05-06 19:24 | 40.78764 | -111.98311 | 4232 ft | 9 kts | 215° |
| 2026-05-06 19:24 | 40.78705 | -111.98313 | 4231 ft | 10 kts | 180° |
| 2026-05-06 19:25 | 40.78659 | -111.98314 | 4232 ft | 3 kts | 180° |
| 2026-05-06 19:25 | 40.78648 | -111.98314 | 4233 ft | 1 kts | 179° |